createdAt,value
2022-08-04T00:00:03.232Z,11
2022-08-04T00:01:03.725Z,11
2022-08-04T00:02:03.520Z,11
2022-08-04T00:03:03.660Z,11
2022-08-04T00:04:03.890Z,11
2022-08-04T00:05:03.522Z,11
2022-08-04T00:06:03.959Z,11
2022-08-04T00:07:03.656Z,11
2022-08-04T00:08:03.998Z,11
2022-08-04T00:09:03.892Z,11
2022-08-04T00:10:04.202Z,11
2022-08-04T00:11:03.878Z,11
2022-08-04T00:12:03.249Z,11
2022-08-04T00:13:03.700Z,11
2022-08-04T00:14:03.988Z,11
2022-08-04T00:15:03.847Z,11
2022-08-04T00:16:03.531Z,11
2022-08-04T00:17:03.560Z,11
2022-08-04T00:18:04.011Z,11
2022-08-04T00:19:03.756Z,11
2022-08-04T00:20:03.492Z,11
2022-08-04T00:21:03.835Z,11
2022-08-04T00:22:03.411Z,11
2022-08-04T00:23:03.746Z,11
2022-08-04T00:24:12.226Z,11
2022-08-04T00:25:03.424Z,11
2022-08-04T00:26:03.798Z,11
2022-08-04T00:27:03.482Z,11
2022-08-04T00:28:03.915Z,11
2022-08-04T00:29:03.644Z,11
2022-08-04T00:30:04.033Z,11
2022-08-04T00:31:03.701Z,11
2022-08-04T00:32:03.135Z,11
2022-08-04T00:33:03.389Z,11
2022-08-04T00:34:03.080Z,11
2022-08-04T00:35:03.479Z,11
2022-08-04T00:36:03.219Z,11
2022-08-04T00:37:03.575Z,11
2022-08-04T00:38:03.615Z,11
2022-08-04T00:39:03.947Z,11
2022-08-04T00:40:03.749Z,11
2022-08-04T00:41:03.527Z,11
2022-08-04T00:42:03.885Z,11
2022-08-04T00:43:03.826Z,11
2022-08-04T00:44:04.110Z,11
2022-08-04T00:45:03.978Z,11
2022-08-04T00:46:16.684Z,11
2022-08-04T00:47:04.102Z,11
2022-08-04T00:48:04.452Z,11
2022-08-04T00:49:03.999Z,11
2022-08-04T00:50:04.456Z,11
2022-08-04T00:51:04.100Z,11
2022-08-04T00:52:30.643Z,11
2022-08-04T00:53:03.933Z,11
2022-08-04T00:54:03.601Z,11
2022-08-04T00:55:06.920Z,11
2022-08-04T00:56:03.718Z,11
2022-08-04T00:57:04.115Z,11
2022-08-04T00:58:04.234Z,11
2022-08-04T00:59:04.002Z,11
2022-08-04T01:00:04.416Z,11
2022-08-04T01:01:04.485Z,11
2022-08-04T01:02:03.265Z,11
2022-08-04T01:03:03.634Z,11
2022-08-04T01:04:03.286Z,11
2022-08-04T01:05:03.432Z,11
2022-08-04T01:06:03.134Z,11
2022-08-04T01:07:03.517Z,11
2022-08-04T01:08:03.282Z,11
2022-08-04T01:09:03.377Z,11
2022-08-04T01:10:03.783Z,11
2022-08-04T01:11:03.427Z,11
2022-08-04T01:12:03.787Z,11
2022-08-04T01:13:07.732Z,11
2022-08-04T01:14:03.808Z,11
2022-08-04T01:15:04.146Z,11
2022-08-04T01:16:03.894Z,11
2022-08-04T01:17:03.586Z,11
2022-08-04T01:18:03.272Z,10
2022-08-04T01:19:03.478Z,11
2022-08-04T01:20:03.124Z,11
2022-08-04T01:21:03.223Z,11
2022-08-04T01:22:03.611Z,11
2022-08-04T01:23:03.265Z,11
2022-08-04T01:24:03.672Z,10
2022-08-04T01:25:04.651Z,11
2022-08-04T01:26:06.910Z,11
2022-08-04T01:27:04.154Z,11
2022-08-04T01:28:04.499Z,11
2022-08-04T01:29:04.215Z,11
2022-08-04T01:30:03.936Z,10
2022-08-04T01:31:04.424Z,11
2022-08-04T01:32:03.893Z,10
2022-08-04T01:33:03.588Z,10
2022-08-04T01:34:04.784Z,10
2022-08-04T01:35:03.620Z,10
2022-08-04T01:36:04.040Z,10
2022-08-04T01:37:04.523Z,10
2022-08-04T01:38:20.102Z,10
2022-08-04T01:39:04.676Z,10
2022-08-04T01:40:04.536Z,10
2022-08-04T01:41:04.196Z,10
2022-08-04T01:42:03.616Z,10
2022-08-04T01:43:03.420Z,10
2022-08-04T01:44:03.830Z,10
2022-08-04T01:45:03.501Z,10
2022-08-04T01:46:03.445Z,11
2022-08-04T01:47:04.127Z,10
2022-08-04T01:48:03.928Z,10
2022-08-04T01:49:04.299Z,10
2022-08-04T01:50:04.383Z,11
2022-08-04T01:51:04.074Z,11
2022-08-04T01:52:04.463Z,11
2022-08-04T01:53:04.116Z,10
2022-08-04T01:54:04.472Z,11
2022-08-04T01:55:04.465Z,11
2022-08-04T01:56:04.212Z,11
2022-08-04T01:57:38.400Z,11
2022-08-04T01:58:04.428Z,10
2022-08-04T01:59:04.719Z,11
2022-08-04T02:00:04.615Z,11
2022-08-04T02:01:05.219Z,11
2022-08-04T02:02:04.158Z,10
2022-08-04T02:03:04.152Z,11
2022-08-04T02:04:20.035Z,10
2022-08-04T02:05:03.882Z,10
2022-08-04T02:06:04.378Z,10
2022-08-04T02:07:03.828Z,11
2022-08-04T02:08:04.263Z,11
2022-08-04T02:09:03.897Z,11
2022-08-04T02:10:03.626Z,10
2022-08-04T02:11:04.274Z,11
2022-08-04T02:12:03.655Z,11
2022-08-04T02:13:03.334Z,10
2022-08-04T02:14:03.456Z,10
2022-08-04T02:15:03.783Z,11
2022-08-04T02:16:03.213Z,11
2022-08-04T02:17:04.351Z,10
2022-08-04T02:18:04.312Z,10
2022-08-04T02:19:03.936Z,11
2022-08-04T02:20:04.271Z,10
2022-08-04T02:21:03.930Z,10
2022-08-04T02:22:03.645Z,10
2022-08-04T02:23:04.016Z,10
2022-08-04T02:24:03.665Z,11
2022-08-04T02:25:04.044Z,10
2022-08-04T02:26:03.671Z,11
2022-08-04T02:27:04.703Z,10
2022-08-04T02:28:04.411Z,10
2022-08-04T02:29:04.743Z,10
2022-08-04T02:30:04.538Z,11
2022-08-04T02:31:04.187Z,11
2022-08-04T02:32:03.649Z,10
2022-08-04T02:33:04.134Z,10
2022-08-04T02:34:03.884Z,10
2022-08-04T02:35:03.898Z,10
2022-08-04T02:36:03.661Z,10
2022-08-04T02:37:04.717Z,10
2022-08-04T02:38:04.126Z,10
2022-08-04T02:39:04.587Z,10
2022-08-04T02:40:04.185Z,10
2022-08-04T02:41:04.423Z,10
2022-08-04T02:42:04.733Z,10
2022-08-04T02:43:04.394Z,10
2022-08-04T02:44:04.129Z,10
2022-08-04T02:45:04.528Z,10
2022-08-04T02:46:04.399Z,10
2022-08-04T02:47:03.871Z,10
2022-08-04T02:48:29.159Z,10
2022-08-04T02:49:04.352Z,10
2022-08-04T02:50:03.948Z,10
2022-08-04T02:51:04.437Z,10
2022-08-04T02:52:04.084Z,10
2022-08-04T02:53:04.430Z,10
2022-08-04T02:54:04.654Z,10
2022-08-04T02:55:04.526Z,10
2022-08-04T02:56:04.194Z,10
2022-08-04T02:57:04.366Z,10
2022-08-04T02:58:03.978Z,10
2022-08-04T02:59:03.714Z,10
2022-08-04T03:00:04.149Z,10
2022-08-04T03:01:04.255Z,10
2022-08-04T03:02:02.873Z,10
2022-08-04T03:03:03.269Z,10
2022-08-04T03:04:03.273Z,10
2022-08-04T03:05:02.880Z,10
2022-08-04T03:06:06.401Z,10
2022-08-04T03:07:03.442Z,10
2022-08-04T03:08:03.862Z,10
2022-08-04T03:09:03.870Z,10
2022-08-04T03:10:04.081Z,10
2022-08-04T03:11:03.726Z,10
2022-08-04T03:12:03.276Z,10
2022-08-04T03:13:03.645Z,10
2022-08-04T03:14:05.266Z,10
2022-08-04T03:15:03.045Z,10
2022-08-04T03:16:03.399Z,10
2022-08-04T03:17:03.756Z,10
2022-08-04T03:18:04.192Z,10
2022-08-04T03:19:03.979Z,10
2022-08-04T03:20:03.651Z,10
2022-08-04T03:21:03.901Z,10
2022-08-04T03:22:03.375Z,10
2022-08-04T03:23:13.363Z,10
2022-08-04T03:24:03.445Z,10
2022-08-04T03:25:03.145Z,10
2022-08-04T03:26:03.569Z,11
2022-08-04T03:27:03.925Z,10
2022-08-04T03:28:03.930Z,10
2022-08-04T03:29:04.437Z,10
2022-08-04T03:30:04.115Z,10
2022-08-04T03:31:03.696Z,10
2022-08-04T03:32:03.414Z,10
2022-08-04T03:33:03.009Z,10
2022-08-04T03:34:03.161Z,10
2022-08-04T03:35:02.949Z,10
2022-08-04T03:36:03.391Z,10
2022-08-04T03:37:03.784Z,10
2022-08-04T03:38:03.487Z,10
2022-08-04T03:39:04.195Z,10
2022-08-04T03:40:04.039Z,10
2022-08-04T03:41:03.818Z,10
2022-08-04T03:42:05.188Z,10
2022-08-04T03:43:03.641Z,10
2022-08-04T03:44:04.051Z,10
2022-08-04T03:45:03.826Z,10
2022-08-04T03:46:04.051Z,10
2022-08-04T03:47:03.474Z,10
2022-08-04T03:48:03.203Z,10
2022-08-04T03:49:03.682Z,10
2022-08-04T03:50:04.423Z,10
2022-08-04T03:51:03.749Z,10
2022-08-04T03:52:04.136Z,10
2022-08-04T03:53:03.853Z,10
2022-08-04T03:54:04.194Z,10
2022-08-04T03:55:03.977Z,10
2022-08-04T03:56:03.865Z,10
2022-08-04T03:57:03.364Z,10
2022-08-04T03:58:03.165Z,10
2022-08-04T03:59:03.578Z,10
2022-08-04T04:00:03.391Z,10
2022-08-04T04:01:03.531Z,10
2022-08-04T04:02:06.757Z,10
2022-08-04T04:03:03.831Z,10
2022-08-04T04:04:04.213Z,10
2022-08-04T04:05:04.082Z,10
2022-08-04T04:06:03.998Z,10
2022-08-04T04:07:03.612Z,10
2022-08-04T04:08:04.299Z,10
2022-08-04T04:09:03.551Z,10
2022-08-04T04:10:06.362Z,10
2022-08-04T04:11:03.088Z,10
2022-08-04T04:12:04.006Z,10
2022-08-04T04:13:04.018Z,10
2022-08-04T04:14:03.884Z,10
2022-08-04T04:15:03.841Z,10
2022-08-04T04:16:04.328Z,10
2022-08-04T04:17:03.758Z,10
2022-08-04T04:18:03.609Z,10
2022-08-04T04:19:03.614Z,10
2022-08-04T04:20:03.242Z,10
2022-08-04T04:21:03.698Z,10
2022-08-04T04:22:04.221Z,10
2022-08-04T04:23:04.064Z,10
2022-08-04T04:24:03.748Z,10
2022-08-04T04:25:03.837Z,10
2022-08-04T04:26:03.671Z,10
2022-08-04T04:27:03.857Z,10
2022-08-04T04:28:44.802Z,10
2022-08-04T04:29:03.622Z,10
2022-08-04T04:30:03.553Z,10
2022-08-04T04:31:03.587Z,10
2022-08-04T04:32:04.099Z,10
2022-08-04T04:33:03.964Z,10
2022-08-04T04:34:03.812Z,10
2022-08-04T04:35:03.591Z,10
2022-08-04T04:36:04.156Z,10
2022-08-04T04:37:02.994Z,10
2022-08-04T04:38:03.549Z,10
2022-08-04T04:39:03.411Z,10
2022-08-04T04:40:03.895Z,10
2022-08-04T04:41:03.071Z,10
2022-08-04T04:42:03.567Z,10
2022-08-04T04:43:03.880Z,10
2022-08-04T04:44:03.802Z,10
2022-08-04T04:45:03.571Z,10
2022-08-04T04:46:04.060Z,10
2022-08-04T04:47:03.878Z,10
2022-08-04T04:48:09.586Z,10
2022-08-04T04:49:04.194Z,10
2022-08-04T04:50:04.122Z,10
2022-08-04T04:51:04.226Z,10
2022-08-04T04:52:03.149Z,10
2022-08-04T04:53:03.387Z,10
2022-08-04T04:54:03.157Z,10
2022-08-04T04:55:03.678Z,10
2022-08-04T04:56:03.393Z,10
2022-08-04T04:57:03.158Z,10
2022-08-04T04:58:03.251Z,10
2022-08-04T04:59:03.738Z,10
2022-08-04T05:00:03.517Z,10
2022-08-04T05:01:03.173Z,10
2022-08-04T05:02:03.642Z,10
2022-08-04T05:03:07.238Z,10
2022-08-04T05:04:03.214Z,10
2022-08-04T05:05:03.554Z,10
2022-08-04T05:06:03.543Z,11
2022-08-04T05:07:03.367Z,10
2022-08-04T05:08:43.842Z,10
2022-08-04T05:09:03.475Z,10
2022-08-04T05:10:03.733Z,10
2022-08-04T05:11:03.514Z,10
2022-08-04T05:12:03.020Z,10
2022-08-04T05:14:35.657Z,10
2022-08-04T05:14:38.769Z,10
2022-08-04T05:15:03.151Z,10
2022-08-04T05:16:03.625Z,10
2022-08-04T05:17:03.402Z,10
2022-08-04T05:18:03.846Z,10
2022-08-04T05:19:03.582Z,10
2022-08-04T05:20:03.790Z,10
2022-08-04T05:21:03.451Z,10
2022-08-04T05:22:02.923Z,10
2022-08-04T05:23:03.408Z,10
2022-08-04T05:24:03.179Z,10
2022-08-04T05:25:02.838Z,10
2022-08-04T05:26:03.090Z,10
2022-08-04T05:27:03.522Z,10
2022-08-04T05:28:04.075Z,10
2022-08-04T05:29:04.062Z,10
2022-08-04T05:30:03.770Z,10
2022-08-04T05:31:03.573Z,10
2022-08-04T05:32:03.096Z,10
2022-08-04T05:33:02.921Z,11
2022-08-04T05:34:03.344Z,10
2022-08-04T05:35:03.114Z,11
2022-08-04T05:36:18.898Z,10
2022-08-04T05:37:03.427Z,11
2022-08-04T05:38:03.236Z,10
2022-08-04T05:39:03.814Z,10
2022-08-04T05:40:03.662Z,10
2022-08-04T05:41:03.455Z,10
2022-08-04T05:42:04.428Z,10
2022-08-04T05:43:03.951Z,11
2022-08-04T05:44:03.751Z,11
2022-08-04T05:45:04.291Z,11
2022-08-04T05:46:04.151Z,10
2022-08-04T05:47:03.041Z,11
2022-08-04T05:48:02.790Z,10
2022-08-04T05:49:02.916Z,10
2022-08-04T05:50:03.307Z,11
2022-08-04T05:51:03.176Z,11
2022-08-04T05:52:03.386Z,10
2022-08-04T05:53:03.900Z,10
2022-08-04T05:54:03.879Z,11
2022-08-04T05:55:03.678Z,11
2022-08-04T05:56:03.439Z,11
2022-08-04T05:57:03.905Z,11
2022-08-04T05:58:03.721Z,11
2022-08-04T05:59:04.201Z,11
2022-08-04T06:00:19.494Z,11
2022-08-04T06:01:03.995Z,11
2022-08-04T06:02:03.627Z,11
2022-08-04T06:03:03.396Z,11
2022-08-04T06:04:06.902Z,11
2022-08-04T06:05:03.478Z,11
2022-08-04T06:06:03.270Z,11
2022-08-04T06:07:03.840Z,11
2022-08-04T06:08:12.420Z,11
2022-08-04T06:09:03.679Z,11
2022-08-04T06:10:03.809Z,11
2022-08-04T06:11:03.606Z,11
2022-08-04T06:12:04.396Z,11
2022-08-04T06:13:03.230Z,11
2022-08-04T06:14:03.149Z,11
2022-08-04T06:15:03.008Z,11
2022-08-04T06:16:02.857Z,11
2022-08-04T06:17:03.432Z,11
2022-08-04T06:18:35.585Z,11
2022-08-04T06:20:02.597Z,11
2022-08-04T06:20:19.139Z,11
2022-08-04T06:21:03.684Z,11
2022-08-04T06:22:03.555Z,11
2022-08-04T06:23:03.599Z,11
2022-08-04T06:24:04.708Z,11
2022-08-04T06:25:03.323Z,11
2022-08-04T06:26:03.671Z,11
2022-08-04T06:27:03.259Z,11
2022-08-04T06:28:03.039Z,11
2022-08-04T06:29:02.890Z,11
2022-08-04T06:30:03.378Z,11
2022-08-04T06:32:30.604Z,11
2022-08-04T06:32:31.491Z,11
2022-08-04T06:33:05.118Z,11
2022-08-04T06:34:04.041Z,11
2022-08-04T06:35:03.807Z,11
2022-08-04T06:36:03.733Z,11
2022-08-04T06:37:04.053Z,11
2022-08-04T06:38:04.024Z,11
2022-08-04T06:39:03.863Z,11
2022-08-04T06:40:04.122Z,11
2022-08-04T06:41:04.284Z,11
2022-08-04T06:42:17.299Z,11
2022-08-04T06:43:04.085Z,11
2022-08-04T06:44:03.727Z,11
2022-08-04T06:45:04.245Z,11
2022-08-04T06:46:04.112Z,12
2022-08-04T06:47:03.356Z,11
2022-08-04T06:48:03.842Z,11
2022-08-04T06:49:03.842Z,11
2022-08-04T06:51:26.757Z,11
2022-08-04T06:52:03.933Z,11
2022-08-04T06:53:03.730Z,11
2022-08-04T06:54:03.816Z,11
2022-08-04T06:55:03.771Z,11
2022-08-04T06:56:03.554Z,12
2022-08-04T06:57:03.475Z,11
2022-08-04T06:58:03.804Z,11
2022-08-04T06:59:03.513Z,11
2022-08-04T07:00:02.998Z,11
2022-08-04T07:01:03.610Z,12
2022-08-04T07:02:03.316Z,11
2022-08-04T07:03:02.745Z,11
2022-08-04T07:04:03.352Z,11
2022-08-04T07:05:07.498Z,11
2022-08-04T07:06:05.617Z,11
2022-08-04T07:07:03.255Z,11
2022-08-04T07:08:03.231Z,11
2022-08-04T07:09:03.172Z,11
2022-08-04T07:10:03.133Z,11
2022-08-04T07:11:03.069Z,11
2022-08-04T07:12:03.690Z,11
2022-08-04T07:13:03.554Z,11
2022-08-04T07:14:03.787Z,11
2022-08-04T07:15:03.474Z,11
2022-08-04T07:16:03.342Z,11
2022-08-04T07:17:04.076Z,11
2022-08-04T07:18:03.893Z,11
2022-08-04T07:19:10.452Z,11
2022-08-04T07:20:03.785Z,11
2022-08-04T07:21:03.748Z,11
2022-08-04T07:22:25.420Z,11
2022-08-04T07:23:03.225Z,11
2022-08-04T07:24:03.126Z,11
2022-08-04T07:25:03.432Z,11
2022-08-04T07:26:12.280Z,11
2022-08-04T07:27:03.682Z,11
2022-08-04T07:28:03.576Z,11
2022-08-04T07:29:03.483Z,10
2022-08-04T07:30:03.375Z,11
2022-08-04T07:31:03.285Z,11
2022-08-04T07:32:03.774Z,10
2022-08-04T07:33:03.685Z,10
2022-08-04T07:34:17.372Z,11
2022-08-04T07:35:03.829Z,11
2022-08-04T07:36:10.729Z,11
2022-08-04T07:37:03.977Z,11
2022-08-04T07:38:03.808Z,10
2022-08-04T07:39:03.655Z,11
2022-08-04T07:40:03.552Z,11
2022-08-04T07:41:03.884Z,11
2022-08-04T07:42:02.854Z,11
2022-08-04T07:43:03.424Z,11
2022-08-04T07:44:03.220Z,11
2022-08-04T07:45:03.057Z,11
2022-08-04T07:46:03.537Z,11
2022-08-04T07:47:03.939Z,11
2022-08-04T07:48:05.125Z,11
2022-08-04T07:49:03.465Z,11
2022-08-04T07:50:04.031Z,11
2022-08-04T07:51:03.804Z,11
2022-08-04T07:52:03.632Z,11
2022-08-04T07:53:53.039Z,11
2022-08-04T07:54:03.966Z,11
2022-08-04T07:55:03.877Z,11
2022-08-04T07:56:03.994Z,11
2022-08-04T07:57:04.426Z,11
2022-08-04T07:58:03.923Z,11
2022-08-04T07:59:03.855Z,11
2022-08-04T08:00:04.433Z,11
2022-08-04T08:01:04.433Z,11
2022-08-04T08:02:03.218Z,11
2022-08-04T08:03:03.817Z,11
2022-08-04T08:04:03.554Z,11
2022-08-04T08:05:03.853Z,11
2022-08-04T08:06:17.601Z,11
2022-08-04T08:07:03.619Z,11
2022-08-04T08:08:04.129Z,11
2022-08-04T08:09:13.086Z,11
2022-08-04T08:10:03.820Z,11
2022-08-04T08:11:03.709Z,11
2022-08-04T08:12:38.043Z,11
2022-08-04T08:13:03.851Z,11
2022-08-04T08:14:03.682Z,11
2022-08-04T08:15:04.241Z,11
2022-08-04T08:16:04.112Z,11
2022-08-04T08:17:03.913Z,11
2022-08-04T08:18:03.937Z,11
2022-08-04T08:19:04.039Z,11
2022-08-04T08:20:04.484Z,11
2022-08-04T08:21:04.507Z,12
2022-08-04T08:22:03.503Z,11
2022-08-04T08:23:03.493Z,11
2022-08-04T08:24:03.613Z,11
2022-08-04T08:25:03.450Z,11
2022-08-04T08:26:03.585Z,12
2022-08-04T08:27:03.286Z,12
2022-08-04T08:28:03.505Z,11
2022-08-04T08:29:03.326Z,11
2022-08-04T08:30:03.660Z,11
2022-08-04T08:31:03.575Z,11
2022-08-04T08:32:08.151Z,11
2022-08-04T08:33:05.478Z,11
2022-08-04T08:34:04.181Z,11
2022-08-04T08:35:04.092Z,11
2022-08-04T08:36:04.357Z,12
2022-08-04T08:37:04.192Z,11
2022-08-04T08:38:04.172Z,11
2022-08-04T08:39:04.309Z,11
2022-08-04T08:40:04.221Z,11
2022-08-04T08:41:04.103Z,12
2022-08-04T08:42:03.747Z,12
2022-08-04T08:44:05.301Z,11
2022-08-04T08:44:05.723Z,11
2022-08-04T08:45:03.979Z,11
2022-08-04T08:46:03.778Z,12
2022-08-04T08:47:04.159Z,12
2022-08-04T08:48:05.850Z,11
2022-08-04T08:49:04.085Z,11
2022-08-04T08:50:04.978Z,12
2022-08-04T08:51:04.680Z,12
2022-08-04T08:52:04.593Z,12
2022-08-04T08:53:04.417Z,12
2022-08-04T08:54:04.959Z,12
2022-08-04T08:55:04.925Z,12
2022-08-04T08:56:04.782Z,12
2022-08-04T08:57:03.771Z,12
2022-08-04T08:58:03.703Z,12
2022-08-04T08:59:03.856Z,12
2022-08-04T09:00:03.680Z,12
2022-08-04T09:01:03.769Z,12
2022-08-04T09:02:03.148Z,12
2022-08-04T09:03:03.981Z,12
2022-08-04T09:04:03.431Z,12
2022-08-04T09:05:03.362Z,12
2022-08-04T09:06:02.849Z,13
2022-08-04T09:07:03.092Z,13
2022-08-04T09:08:03.087Z,12
2022-08-04T09:09:03.101Z,12
2022-08-04T09:10:03.368Z,13
2022-08-04T09:11:03.293Z,13
2022-08-04T09:12:03.013Z,12
2022-08-04T09:13:03.288Z,12
2022-08-04T09:14:03.189Z,12
2022-08-04T09:15:03.028Z,12
2022-08-04T09:16:02.922Z,13
2022-08-04T09:17:03.471Z,13
2022-08-04T09:18:03.251Z,12
2022-08-04T09:19:03.163Z,12
2022-08-04T09:20:03.482Z,12
2022-08-04T09:21:03.371Z,13
2022-08-04T09:22:03.327Z,12
2022-08-04T09:23:03.123Z,13
2022-08-04T09:24:02.863Z,13
2022-08-04T09:25:03.044Z,13
2022-08-04T09:26:03.007Z,13
2022-08-04T09:27:03.581Z,13
2022-08-04T09:28:06.116Z,13
2022-08-04T09:29:03.419Z,13
2022-08-04T09:30:03.199Z,13
2022-08-04T09:31:03.815Z,13
2022-08-04T09:32:06.788Z,13
2022-08-04T09:33:03.227Z,13
2022-08-04T09:34:03.085Z,12
2022-08-04T09:35:09.601Z,13
2022-08-04T09:36:03.033Z,13
2022-08-04T09:37:03.535Z,13
2022-08-04T09:38:03.238Z,13
2022-08-04T09:39:03.633Z,14
2022-08-04T09:40:03.552Z,13
2022-08-04T09:41:03.323Z,14
2022-08-04T09:42:03.854Z,14
2022-08-04T09:43:04.240Z,13
2022-08-04T09:44:51.294Z,14
2022-08-04T09:45:06.156Z,14
2022-08-04T09:46:03.845Z,14
2022-08-04T09:47:03.283Z,14
2022-08-04T09:48:03.109Z,14
2022-08-04T09:49:03.033Z,14
2022-08-04T09:50:02.996Z,14
2022-08-04T09:51:02.868Z,14
2022-08-04T09:52:04.034Z,14
2022-08-04T09:53:04.006Z,14
2022-08-04T09:54:03.906Z,14
2022-08-04T09:55:03.883Z,14
2022-08-04T09:56:04.081Z,15
2022-08-04T09:57:03.575Z,15
2022-08-04T09:58:03.582Z,15
2022-08-04T09:59:03.451Z,15
2022-08-04T10:00:03.388Z,15
2022-08-04T10:01:03.363Z,16
2022-08-04T10:02:04.008Z,15
2022-08-04T10:03:03.998Z,15
2022-08-04T10:04:03.984Z,15
2022-08-04T10:05:03.888Z,15
2022-08-04T10:06:03.782Z,16
2022-08-04T10:07:03.717Z,15
2022-08-04T10:08:15.608Z,15
2022-08-04T10:09:03.376Z,15
2022-08-04T10:10:03.594Z,15
2022-08-04T10:11:03.409Z,16
2022-08-04T10:12:03.890Z,16
2022-08-04T10:13:03.835Z,15
2022-08-04T10:14:03.865Z,15
2022-08-04T10:15:03.670Z,16
2022-08-04T10:16:03.565Z,16
2022-08-04T10:17:04.178Z,16
2022-08-04T10:18:03.713Z,15
2022-08-04T10:19:07.946Z,15
2022-08-04T10:20:04.065Z,16
2022-08-04T10:21:10.242Z,16
2022-08-04T10:22:28.463Z,16
2022-08-04T10:23:11.454Z,15
2022-08-04T10:24:04.170Z,15
2022-08-04T10:25:04.101Z,16
2022-08-04T10:26:07.918Z,16
2022-08-04T10:27:04.645Z,16
2022-08-04T10:28:04.450Z,15
2022-08-04T10:29:04.317Z,16
2022-08-04T10:30:04.076Z,16
2022-08-04T10:31:04.588Z,16
2022-08-04T10:32:03.460Z,16
2022-08-04T10:33:04.116Z,16
2022-08-04T10:34:04.018Z,16
2022-08-04T10:35:03.760Z,16
2022-08-04T10:36:03.664Z,16
2022-08-04T10:37:03.942Z,16
2022-08-04T10:38:04.569Z,15
2022-08-04T10:39:04.500Z,15
2022-08-04T10:40:04.156Z,15
2022-08-04T10:41:04.465Z,16
2022-08-04T10:42:04.362Z,16
2022-08-04T10:43:04.897Z,15
2022-08-04T10:44:04.747Z,16
2022-08-04T10:45:04.939Z,16
2022-08-04T10:46:04.803Z,16
2022-08-04T10:47:04.631Z,16
2022-08-04T10:48:03.668Z,16
2022-08-04T10:49:04.155Z,16
2022-08-04T10:50:04.119Z,16
2022-08-04T10:51:03.909Z,17
2022-08-04T10:52:03.861Z,16
2022-08-04T10:53:04.008Z,16
2022-08-04T10:54:03.973Z,16
2022-08-04T10:55:03.905Z,16
2022-08-04T10:56:06.136Z,17
2022-08-04T10:57:04.366Z,17
2022-08-04T10:58:04.849Z,16
2022-08-04T10:59:04.842Z,16
2022-08-04T11:00:04.791Z,17
2022-08-04T11:01:04.786Z,17
2022-08-04T11:02:04.628Z,17
2022-08-04T11:03:02.631Z,16
2022-08-04T11:04:02.609Z,16
2022-08-04T11:05:03.137Z,17
2022-08-04T11:06:02.956Z,17
2022-08-04T11:07:02.949Z,17
2022-08-04T11:08:06.506Z,16
2022-08-04T11:09:03.324Z,17
2022-08-04T11:10:03.304Z,17
2022-08-04T11:11:03.177Z,17
2022-08-04T11:12:03.096Z,18
2022-08-04T11:13:03.694Z,17
2022-08-04T11:14:03.215Z,17
2022-08-04T11:15:03.716Z,17
2022-08-04T11:16:04.007Z,18
2022-08-04T11:17:03.195Z,18
2022-08-04T11:18:03.828Z,17
2022-08-04T11:19:03.745Z,17
2022-08-04T11:20:32.269Z,17
2022-08-04T11:21:03.947Z,18
2022-08-04T11:22:03.806Z,18
2022-08-04T11:23:02.935Z,16
2022-08-04T11:24:02.904Z,16
2022-08-04T11:25:02.903Z,17
2022-08-04T11:26:02.895Z,17
2022-08-04T11:27:02.865Z,17
2022-08-04T11:28:03.784Z,16
2022-08-04T11:29:04.515Z,16
2022-08-04T11:30:03.578Z,16
2022-08-04T11:31:04.016Z,17
2022-08-04T11:32:03.931Z,17
2022-08-04T11:33:02.999Z,16
2022-08-04T11:34:02.928Z,16
2022-08-04T11:35:02.925Z,17
2022-08-04T11:36:03.509Z,17
2022-08-04T11:37:03.423Z,17
2022-08-04T11:38:03.463Z,16
2022-08-04T11:39:03.433Z,17
2022-08-04T11:40:03.999Z,16
2022-08-04T11:41:04.023Z,17
2022-08-04T11:42:03.955Z,17
2022-08-04T11:43:02.886Z,16
2022-08-04T11:44:07.907Z,16
2022-08-04T11:45:02.905Z,17
2022-08-04T11:46:02.991Z,17
2022-08-04T11:47:03.030Z,17
2022-08-04T11:48:03.672Z,15
2022-08-04T11:49:04.278Z,15
2022-08-04T11:50:04.158Z,16
2022-08-04T11:51:03.974Z,16
2022-08-04T11:52:03.860Z,16
2022-08-04T11:53:03.717Z,15
2022-08-04T11:54:03.727Z,15
2022-08-04T11:55:03.755Z,16
2022-08-04T11:56:08.204Z,17
2022-08-04T11:57:03.881Z,17
2022-08-04T11:58:03.529Z,15
2022-08-04T11:59:03.458Z,15
2022-08-04T12:00:07.619Z,16
2022-08-04T12:01:03.464Z,16
2022-08-04T12:02:04.158Z,16
2022-08-04T12:03:03.210Z,15
2022-08-04T12:04:03.586Z,15
2022-08-04T12:05:03.193Z,16
2022-08-04T12:06:03.163Z,16
2022-08-04T12:07:30.522Z,16
2022-08-04T12:08:03.846Z,15
2022-08-04T12:09:03.789Z,15
2022-08-04T12:10:03.716Z,16
2022-08-04T12:11:03.816Z,17
2022-08-04T12:12:04.282Z,17
2022-08-04T12:13:03.316Z,16
2022-08-04T12:14:03.345Z,16
2022-08-04T12:15:03.103Z,17
2022-08-04T12:16:03.695Z,17
2022-08-04T12:17:03.605Z,18
2022-08-04T12:18:03.657Z,16
2022-08-04T12:19:03.389Z,16
2022-08-04T12:20:31.425Z,16
2022-08-04T12:21:03.860Z,17
2022-08-04T12:22:03.801Z,17
2022-08-04T12:23:03.833Z,16
2022-08-04T12:24:03.813Z,16
2022-08-04T12:25:03.769Z,17
2022-08-04T12:26:04.355Z,17
2022-08-04T12:27:04.447Z,18
2022-08-04T12:28:04.153Z,16
2022-08-04T12:29:10.206Z,16
2022-08-04T12:30:59.411Z,16
2022-08-04T12:31:08.511Z,17
2022-08-04T12:32:04.700Z,18
2022-08-04T12:33:03.988Z,17
2022-08-04T12:34:06.503Z,16
2022-08-04T12:35:04.045Z,17
2022-08-04T12:36:11.373Z,17
2022-08-04T12:37:04.195Z,17
2022-08-04T12:38:03.868Z,16
2022-08-04T12:39:04.575Z,16
2022-08-04T12:40:29.116Z,16
2022-08-04T12:41:04.257Z,17
2022-08-04T12:42:04.111Z,17
2022-08-04T12:43:04.767Z,16
2022-08-04T12:44:04.557Z,16
2022-08-04T12:45:05.150Z,17
2022-08-04T12:46:05.001Z,17
2022-08-04T12:47:27.689Z,17
2022-08-04T12:48:04.421Z,16
2022-08-04T12:49:04.403Z,16
2022-08-04T12:50:04.857Z,16
2022-08-04T12:51:04.864Z,16
2022-08-04T12:52:07.857Z,17
2022-08-04T12:53:04.765Z,16
2022-08-04T12:54:04.567Z,16
2022-08-04T12:55:04.448Z,16
2022-08-04T12:56:04.950Z,16
2022-08-04T12:57:04.917Z,17
2022-08-04T12:58:04.886Z,16
2022-08-04T12:59:05.109Z,16
2022-08-04T13:00:05.207Z,16
2022-08-04T13:02:05.769Z,16
2022-08-04T13:02:06.826Z,16
2022-08-04T13:03:03.545Z,16
2022-08-04T13:04:03.527Z,15
2022-08-04T13:05:03.478Z,15
2022-08-04T13:06:03.248Z,15
2022-08-04T13:07:03.372Z,16
2022-08-04T13:08:03.917Z,15
2022-08-04T13:09:04.435Z,15
2022-08-04T13:10:04.293Z,15
2022-08-04T13:11:04.188Z,15
2022-08-04T13:12:04.066Z,16
2022-08-04T13:13:03.754Z,15
2022-08-04T13:14:25.560Z,14
2022-08-04T13:15:09.966Z,15
2022-08-04T13:16:03.671Z,15
2022-08-04T13:17:03.799Z,16
2022-08-04T13:18:03.543Z,15
2022-08-04T13:20:03.506Z,15
2022-08-04T13:21:06.022Z,15
2022-08-04T13:22:05.551Z,15
2022-08-04T13:23:03.747Z,14
2022-08-04T13:24:09.820Z,14
2022-08-04T13:26:41.525Z,15
2022-08-04T13:26:43.968Z,15
2022-08-04T13:27:04.223Z,15
2022-08-04T13:28:04.095Z,14
2022-08-04T13:29:16.251Z,14
2022-08-04T13:30:04.249Z,14
2022-08-04T13:30:25.387Z,15
2022-08-04T13:31:03.856Z,15
2022-08-04T13:32:03.897Z,15
2022-08-04T13:33:04.583Z,14
2022-08-04T13:34:04.655Z,14
2022-08-04T13:35:04.421Z,14
2022-08-04T13:36:04.512Z,15
2022-08-04T13:37:04.083Z,14
2022-08-04T13:38:04.723Z,14
2022-08-04T13:39:04.825Z,14
2022-08-04T13:40:04.838Z,14
2022-08-04T13:41:04.670Z,15
2022-08-04T13:42:04.623Z,15
2022-08-04T13:43:04.193Z,14
2022-08-04T13:44:18.414Z,13
2022-08-04T13:45:04.436Z,14
2022-08-04T13:46:03.749Z,14
2022-08-04T13:47:03.924Z,15
2022-08-04T13:48:20.218Z,14
2022-08-04T13:50:10.685Z,14
2022-08-04T13:51:04.100Z,14
2022-08-04T13:52:04.730Z,14
2022-08-04T13:53:04.593Z,13
2022-08-04T13:54:04.675Z,13
2022-08-04T13:55:04.609Z,13
2022-08-04T13:56:04.679Z,14
2022-08-04T13:57:04.926Z,14
2022-08-04T13:58:04.670Z,14
2022-08-04T13:59:04.112Z,13
2022-08-04T14:00:04.111Z,14
2022-08-04T14:01:04.298Z,14
2022-08-04T14:02:04.149Z,14
2022-08-04T14:03:03.291Z,14
2022-08-04T14:04:02.895Z,13
2022-08-04T14:05:02.745Z,13
2022-08-04T14:06:02.733Z,14
2022-08-04T14:07:03.238Z,14
2022-08-04T14:08:03.379Z,14
2022-08-04T14:09:03.418Z,13
2022-08-04T14:10:04.448Z,14
2022-08-04T14:11:03.459Z,14
2022-08-04T14:12:12.827Z,14
2022-08-04T14:13:03.426Z,13
2022-08-04T14:14:03.560Z,13
2022-08-04T14:15:03.584Z,14
2022-08-04T14:16:04.455Z,13
2022-08-04T14:17:03.637Z,14